Time;durP1;ratioP1;P1;durP2;ratioP2;P2;SDS_P1;SDS_P2;PMS_P1;PMS_P2;Temp;Humidity;BMP_temperature;BMP_pressure;BME280_temperature;BME280_humidity;BME280_pressure;Samples;Min_cycle;Max_cycle;Signal;HPM_P1;HPM_P2
2021/04/18 00:01:44;;;;;;;4.82;2.28;;;8.90;99.90;;;;;;4159376;28;20037;-67
2021/04/18 00:03:44;;;;;;;5.57;2.60;;;8.80;99.90;;;;;;4160782;28;20048;-67
2021/04/18 00:05:45;;;;;;;5.35;2.17;;;8.80;99.90;;;;;;4159147;28;20030;-67
2021/04/18 00:07:46;;;;;;;6.80;3.03;;;8.80;99.90;;;;;;4159338;28;20064;-67
2021/04/18 00:09:46;;;;;;;4.07;2.55;;;8.80;99.90;;;;;;4161744;28;20045;-67
2021/04/18 00:11:47;;;;;;;4.07;2.53;;;8.70;99.90;;;;;;4146110;28;20049;-67
2021/04/18 00:13:47;;;;;;;5.47;2.70;;;8.70;99.90;;;;;;4159047;28;20601;-67
2021/04/18 00:15:48;;;;;;;5.43;2.60;;;8.70;99.90;;;;;;4159584;28;20060;-67
2021/04/18 00:17:49;;;;;;;6.22;3.22;;;8.70;99.90;;;;;;4160891;28;20096;-67
2021/04/18 00:19:50;;;;;;;10.02;3.38;;;8.70;99.90;;;;;;4159540;28;20033;-67
2021/04/18 00:21:50;;;;;;;9.48;3.10;;;8.60;99.90;;;;;;4159554;28;20053;-67
2021/04/18 00:23:51;;;;;;;6.70;2.92;;;8.60;99.90;;;;;;4158883;28;20037;-67
2021/04/18 00:25:52;;;;;;;4.78;2.85;;;8.60;99.90;;;;;;4156746;28;20040;-67
2021/04/18 00:27:52;;;;;;;13.13;3.45;;;8.50;99.90;;;;;;4158523;28;20033;-67
2021/04/18 00:29:53;;;;;;;6.97;3.25;;;8.50;99.90;;;;;;4159104;28;20536;-67
2021/04/18 00:31:54;;;;;;;7.50;2.90;;;8.50;99.90;;;;;;4159435;28;20553;-67
2021/04/18 00:33:54;;;;;;;5.82;2.85;;;8.50;99.90;;;;;;4158436;28;20061;-67
2021/04/18 00:35:55;;;;;;;4.20;2.70;;;8.50;99.90;;;;;;4158697;28;20095;-67
2021/04/18 00:37:55;;;;;;;7.22;2.45;;;8.50;99.90;;;;;;4159351;28;20069;-67
2021/04/18 00:39:56;;;;;;;7.88;2.55;;;8.50;99.90;;;;;;4161114;28;20083;-67
2021/04/18 00:41:57;;;;;;;4.25;2.60;;;8.50;99.90;;;;;;4162366;28;20037;-67
2021/04/18 00:43:57;;;;;;;5.40;2.45;;;8.50;99.90;;;;;;4156771;28;20095;-67
2021/04/18 00:45:58;;;;;;;3.63;2.35;;;8.50;99.90;;;;;;4158504;28;20124;-67
2021/04/18 00:48:01;;;;;;;8.18;2.63;;;8.50;99.90;;;;;;4158965;28;20037;-67
2021/04/18 00:50:02;;;;;;;;;;;8.50;99.90;;;;;;4159237;28;20040;-67
2021/04/18 00:52:03;;;;;;;7.47;2.75;;;8.50;99.90;;;;;;4158273;28;19952;-67
2021/04/18 00:54:04;;;;;;;9.77;3.42;;;8.40;99.90;;;;;;4158547;28;20125;-67
2021/04/18 00:56:05;;;;;;;6.90;2.97;;;8.30;99.90;;;;;;4158943;28;20088;-67
2021/04/18 00:58:06;;;;;;;4.45;2.40;;;8.30;99.90;;;;;;4174433;28;20105;-67
2021/04/18 01:00:08;;;;;;;5.47;2.28;;;8.30;99.90;;;;;;4161030;28;20063;-67
2021/04/18 01:02:09;;;;;;;6.37;2.93;;;8.30;99.90;;;;;;4158962;28;20033;-67
2021/04/18 01:04:09;;;;;;;6.70;2.88;;;8.30;99.90;;;;;;4158107;28;20299;-67
2021/04/18 01:06:10;;;;;;;4.68;2.85;;;8.30;99.90;;;;;;4162187;28;20033;-67
2021/04/18 01:08:11;;;;;;;7.25;3.33;;;8.30;99.90;;;;;;4158283;28;20040;-67
2021/04/18 01:10:15;;;;;;;7.82;2.78;;;8.20;99.90;;;;;;4157775;28;20069;-67
2021/04/18 01:12:16;;;;;;;6.40;3.03;;;8.20;99.90;;;;;;4158507;28;20528;-67
2021/04/18 01:14:16;;;;;;;5.32;2.50;;;8.10;99.90;;;;;;4157818;28;20037;-67
2021/04/18 01:16:17;;;;;;;5.63;3.10;;;8.10;99.90;;;;;;4155066;28;20037;-67
2021/04/18 01:18:18;;;;;;;7.15;3.15;;;8.10;99.90;;;;;;4158936;28;20068;-67
2021/04/18 01:20:21;;;;;;;7.68;3.17;;;8.10;99.90;;;;;;4157874;28;20041;-67
2021/04/18 01:22:22;;;;;;;6.53;2.65;;;8.10;99.90;;;;;;4158273;28;20042;-67
2021/04/18 01:24:24;;;;;;;8.63;3.17;;;8.00;99.90;;;;;;4158550;28;20065;-67
2021/04/18 01:26:25;;;;;;;6.60;3.30;;;8.00;99.90;;;;;;4157906;28;20484;-67
2021/04/18 01:28:26;;;;;;;6.13;2.90;;;8.00;99.90;;;;;;4157995;28;20037;-67
2021/04/18 01:30:29;;;;;;;4.82;2.35;;;8.00;99.90;;;;;;4158430;28;20041;-67
2021/04/18 01:32:30;;;;;;;7.82;3.50;;;8.10;99.90;;;;;;4155578;28;20038;-67
2021/04/18 01:34:31;;;;;;;9.90;3.40;;;8.00;99.90;;;;;;4157057;28;20048;-67
2021/04/18 01:36:32;;;;;;;5.40;2.70;;;8.00;99.90;;;;;;4158072;28;20404;-67
2021/04/18 01:38:33;;;;;;;7.00;3.55;;;8.00;99.90;;;;;;4179368;28;20044;-67
2021/04/18 01:40:34;;;;;;;5.50;2.87;;;8.00;99.90;;;;;;4156483;28;20160;-67
2021/04/18 01:42:35;;;;;;;5.47;2.47;;;8.00;99.90;;;;;;4157758;28;20056;-67
2021/04/18 01:44:36;;;;;;;4.65;2.45;;;8.00;99.90;;;;;;4156932;28;20563;-67
2021/04/18 01:46:37;;;;;;;5.68;2.40;;;8.00;99.90;;;;;;4158981;28;20034;-67
2021/04/18 01:48:37;;;;;;;3.35;2.15;;;8.00;99.90;;;;;;4157783;28;20132;-67
2021/04/18 01:50:43;;;;;;;6.22;2.42;;;8.00;99.90;;;;;;4157223;28;20650;-67
2021/04/18 01:52:46;;;;;;;6.68;2.60;;;7.90;99.90;;;;;;4156372;28;20095;-67
2021/04/18 01:54:47;;;;;;;;;;;7.90;99.90;;;;;;4157842;28;20413;-67
2021/04/18 01:56:47;;;;;;;5.68;2.75;;;7.90;99.90;;;;;;4156978;28;19920;-67
2021/04/18 01:58:48;;;;;;;5.82;3.05;;;7.80;99.90;;;;;;4158142;28;20046;-67
2021/04/18 02:00:49;;;;;;;5.70;2.78;;;7.80;99.90;;;;;;4157095;28;20064;-67
2021/04/18 02:02:49;;;;;;;6.80;3.63;;;7.80;99.90;;;;;;4157365;28;20178;-67
2021/04/18 02:04:52;;;;;;;5.43;3.10;;;7.80;99.90;;;;;;4156854;28;20033;-67
2021/04/18 02:06:53;;;;;;;10.18;3.63;;;7.70;99.90;;;;;;4183536;28;20094;-67
2021/04/18 02:08:54;;;;;;;5.18;2.70;;;7.70;99.90;;;;;;4155437;28;20041;-67
2021/04/18 02:10:54;;;;;;;8.85;3.60;;;7.70;99.90;;;;;;4155593;28;20120;-67
2021/04/18 02:12:56;;;;;;;7.78;4.05;;;7.60;99.90;;;;;;4171925;28;20039;-67
2021/04/18 02:14:56;;;;;;;6.13;3.20;;;7.60;99.90;;;;;;4156484;28;20130;-67
2021/04/18 02:16:57;;;;;;;5.57;3.30;;;7.50;99.90;;;;;;4157631;28;20080;-67
2021/04/18 02:18:58;;;;;;;5.38;3.10;;;7.50;99.90;;;;;;4156736;28;20045;-67
2021/04/18 02:20:58;;;;;;;5.03;3.40;;;7.50;99.90;;;;;;4157091;28;20056;-67
2021/04/18 02:22:59;;;;;;;6.97;3.33;;;7.50;99.90;;;;;;4188438;28;20048;-67
2021/04/18 02:25:01;;;;;;;6.97;3.08;;;7.50;99.90;;;;;;4160300;28;20033;-67
2021/04/18 02:27:01;;;;;;;5.40;3.25;;;7.50;99.90;;;;;;4157722;28;20049;-67
2021/04/18 02:29:02;;;;;;;8.13;3.75;;;7.60;99.90;;;;;;4158898;28;20055;-67
2021/04/18 02:31:03;;;;;;;8.30;3.47;;;7.50;99.90;;;;;;4157259;28;20040;-67
2021/04/18 02:33:04;;;;;;;5.45;3.38;;;7.50;99.90;;;;;;4158815;28;20041;-67
2021/04/18 02:35:06;;;;;;;7.85;3.75;;;7.50;99.90;;;;;;4154660;28;20045;-67
2021/04/18 02:37:06;;;;;;;6.55;3.35;;;7.40;99.90;;;;;;4155575;28;20052;-67
2021/04/18 02:39:07;;;;;;;6.57;3.22;;;7.40;99.90;;;;;;4160404;28;20410;-67
2021/04/18 02:41:08;;;;;;;5.70;3.60;;;7.40;99.90;;;;;;4156972;28;20845;-67
2021/04/18 02:43:08;;;;;;;5.45;2.92;;;7.40;99.90;;;;;;4157049;28;20731;-67
2021/04/18 02:45:10;;;;;;;6.32;3.05;;;7.30;99.90;;;;;;4156974;28;20088;-67
2021/04/18 02:47:10;;;;;;;6.68;3.30;;;7.30;99.90;;;;;;4157350;28;20478;-67
2021/04/18 02:49:12;;;;;;;7.43;3.42;;;7.30;99.90;;;;;;4156629;28;20060;-67
2021/04/18 02:51:13;;;;;;;13.27;4.03;;;7.30;99.90;;;;;;4157088;28;20045;-67
2021/04/18 02:53:13;;;;;;;8.48;3.63;;;7.30;99.90;;;;;;4156835;28;20041;-67
2021/04/18 02:55:14;;;;;;;8.43;3.75;;;7.20;99.90;;;;;;4156826;28;20038;-67
2021/04/18 02:57:15;;;;;;;9.98;3.85;;;7.20;99.90;;;;;;4156918;28;20056;-67
2021/04/18 02:59:16;;;;;;;10.98;4.50;;;7.20;99.90;;;;;;4159569;28;20041;-67
2021/04/18 03:01:17;;;;;;;10.82;3.90;;;7.20;99.90;;;;;;4156207;28;20049;-67
2021/04/18 03:03:18;;;;;;;9.20;4.40;;;7.20;99.90;;;;;;4157121;28;20045;-67
2021/04/18 03:05:18;;;;;;;9.15;3.47;;;7.10;99.90;;;;;;4177577;28;20037;-67
2021/04/18 03:07:19;;;;;;;6.55;3.85;;;7.10;99.90;;;;;;4158568;28;21536;-67
2021/04/18 03:09:19;;;;;;;7.28;4.22;;;7.10;99.90;;;;;;4156762;28;20033;-67
2021/04/18 03:11:20;;;;;;;7.13;3.95;;;7.10;99.90;;;;;;4158937;28;20084;-67
2021/04/18 03:13:21;;;;;;;7.47;3.88;;;7.10;99.90;;;;;;4156757;28;20033;-67
2021/04/18 03:15:22;;;;;;;10.05;4.32;;;7.10;99.90;;;;;;4155438;28;20124;-67
2021/04/18 03:17:24;;;;;;;7.70;3.95;;;7.10;99.90;;;;;;4171703;28;20459;-67
2021/04/18 03:19:24;;;;;;;6.03;3.60;;;7.10;99.90;;;;;;4156670;28;20087;-67
2021/04/18 03:21:25;;;;;;;5.55;3.70;;;7.10;99.90;;;;;;4156855;28;20037;-67
2021/04/18 03:23:25;;;;;;;7.63;3.67;;;7.10;99.90;;;;;;4158797;28;20033;-67
2021/04/18 03:25:26;;;;;;;6.88;3.80;;;7.10;99.90;;;;;;4157046;28;20404;-67
2021/04/18 03:27:27;;;;;;;11.65;4.22;;;7.10;99.90;;;;;;4155372;28;20041;-67
2021/04/18 03:29:27;;;;;;;8.05;3.95;;;7.10;99.90;;;;;;4157202;28;20045;-67
2021/04/18 03:31:28;;;;;;;6.75;3.53;;;7.10;99.90;;;;;;4176315;28;20055;-67
2021/04/18 03:33:29;;;;;;;9.20;4.53;;;7.10;99.90;;;;;;4156468;28;20079;-67
2021/04/18 03:35:29;;;;;;;6.57;4.18;;;7.10;99.90;;;;;;4157243;28;20053;-67
2021/04/18 03:37:30;;;;;;;12.45;5.03;;;7.10;99.90;;;;;;4156717;28;20045;-67
2021/04/18 03:39:30;;;;;;;9.77;4.40;;;7.10;99.90;;;;;;4156498;28;20040;-67
2021/04/18 03:41:31;;;;;;;7.95;3.88;;;7.10;99.90;;;;;;4157042;28;20037;-67
2021/04/18 03:43:32;;;;;;;10.73;4.88;;;7.10;99.90;;;;;;4157391;28;20037;-67
2021/04/18 03:45:32;;;;;;;8.98;4.13;;;7.10;99.90;;;;;;4155440;28;20423;-67
2021/04/18 03:47:33;;;;;;;9.23;4.35;;;7.10;99.90;;;;;;4157129;28;20075;-67
2021/04/18 03:49:34;;;;;;;7.03;4.00;;;7.10;99.90;;;;;;4156271;28;20164;-67
2021/04/18 03:51:35;;;;;;;8.30;4.28;;;7.10;99.90;;;;;;4154415;28;20034;-67
2021/04/18 03:53:36;;;;;;;8.60;4.45;;;7.10;99.90;;;;;;4156648;28;20045;-67
2021/04/18 03:55:37;;;;;;;7.05;4.18;;;7.20;99.90;;;;;;4156563;28;20621;-67
2021/04/18 03:57:38;;;;;;;11.38;4.40;;;7.20;99.90;;;;;;4155501;28;20120;-67
2021/04/18 03:59:38;;;;;;;9.07;4.55;;;7.20;99.90;;;;;;4156996;28;20394;-67
2021/04/18 04:01:39;;;;;;;8.73;3.97;;;7.20;99.90;;;;;;4156320;28;20052;-67
2021/04/18 04:03:39;;;;;;;7.55;4.30;;;7.20;99.90;;;;;;4156510;28;20029;-67
2021/04/18 04:05:40;;;;;;;10.57;4.80;;;7.20;99.90;;;;;;4156238;28;20048;-67
2021/04/18 04:07:41;;;;;;;8.77;4.18;;;7.20;99.90;;;;;;4156535;28;20121;-67
2021/04/18 04:09:41;;;;;;;5.88;3.88;;;7.20;99.90;;;;;;4156381;28;20041;-67
2021/04/18 04:11:42;;;;;;;9.05;4.13;;;7.20;99.90;;;;;;4158009;28;20042;-67
2021/04/18 04:13:42;;;;;;;8.05;4.20;;;7.20;99.90;;;;;;4155655;28;20133;-67
2021/04/18 04:15:43;;;;;;;8.05;4.40;;;7.20;99.90;;;;;;4157476;28;20533;-67
2021/04/18 04:17:44;;;;;;;7.82;4.80;;;7.20;99.90;;;;;;4159352;28;20042;-67
2021/04/18 04:19:44;;;;;;;11.68;4.45;;;7.30;99.90;;;;;;4155946;28;20041;-67
2021/04/18 04:21:45;;;;;;;9.00;5.10;;;7.30;99.90;;;;;;4156044;28;20080;-67
2021/04/18 04:23:45;;;;;;;9.32;4.28;;;7.30;99.90;;;;;;4156929;28;20084;-67
2021/04/18 04:25:46;;;;;;;11.73;5.28;;;7.40;99.90;;;;;;4157715;28;20053;-67
2021/04/18 04:27:46;;;;;;;10.20;4.43;;;7.30;99.90;;;;;;4159036;28;20040;-67
2021/04/18 04:29:48;;;;;;;10.85;4.93;;;7.30;99.90;;;;;;4158973;28;20049;-67
2021/04/18 04:31:49;;;;;;;9.70;4.53;;;7.30;99.90;;;;;;4158658;28;21005;-67
2021/04/18 04:33:49;;;;;;;10.30;4.80;;;7.30;99.90;;;;;;4189409;28;20028;-67
2021/04/18 04:35:50;;;;;;;12.45;5.75;;;7.30;99.90;;;;;;4159565;28;20527;-67
2021/04/18 04:37:51;;;;;;;13.23;6.15;;;7.30;99.90;;;;;;4158425;28;20114;-67
2021/04/18 04:39:51;;;;;;;9.70;5.28;;;7.30;99.90;;;;;;4174321;28;20040;-67
2021/04/18 04:41:52;;;;;;;11.38;5.07;;;7.20;99.90;;;;;;4159391;28;20041;-67
2021/04/18 04:43:53;;;;;;;16.40;5.72;;;7.20;99.90;;;;;;4158161;28;20049;-67
2021/04/18 04:45:53;;;;;;;13.75;5.68;;;7.20;99.90;;;;;;4159149;28;20053;-67
2021/04/18 04:47:54;;;;;;;10.77;5.18;;;7.10;99.90;;;;;;4159126;28;20046;-67
2021/04/18 04:49:56;;;;;;;10.55;4.90;;;7.10;99.90;;;;;;4159153;28;20454;-67
2021/04/18 04:51:56;;;;;;;9.35;4.82;;;7.10;99.90;;;;;;4157313;28;20153;-67
2021/04/18 04:53:57;;;;;;;9.35;5.05;;;7.10;99.90;;;;;;4158738;28;20042;-67
2021/04/18 04:55:58;;;;;;;13.45;6.25;;;7.10;99.90;;;;;;4159156;28;21830;-67
2021/04/18 04:57:58;;;;;;;15.93;6.07;;;7.10;99.90;;;;;;4158841;28;20720;-67
2021/04/18 04:59:59;;;;;;;13.45;5.53;;;7.10;99.90;;;;;;4158303;28;20028;-67
2021/04/18 05:01:59;;;;;;;14.23;5.88;;;7.00;99.90;;;;;;4159536;28;20457;-67
2021/04/18 05:04:00;;;;;;;13.35;5.80;;;7.00;99.90;;;;;;4159147;28;20035;-67
2021/04/18 05:06:01;;;;;;;11.88;5.85;;;7.00;99.90;;;;;;4158930;28;20065;-67
2021/04/18 05:08:01;;;;;;;13.60;6.25;;;7.00;99.90;;;;;;4158588;28;20026;-67
2021/04/18 05:10:02;;;;;;;12.38;5.90;;;7.00;99.90;;;;;;4161677;28;20033;-67
2021/04/18 05:12:04;;;;;;;21.63;6.72;;;6.90;99.90;;;;;;4159301;28;20789;-67
2021/04/18 05:14:05;;;;;;;14.05;5.90;;;6.90;99.90;;;;;;4158470;28;20164;-67
2021/04/18 05:16:06;;;;;;;12.77;6.07;;;6.90;99.90;;;;;;4161179;28;20115;-67
2021/04/18 05:18:07;;;;;;;10.90;5.97;;;7.00;99.90;;;;;;4159947;28;20550;-67
2021/04/18 05:20:08;;;;;;;11.98;6.18;;;7.00;99.90;;;;;;4158713;28;20029;-67
2021/04/18 05:22:09;;;;;;;12.05;5.90;;;7.00;99.90;;;;;;4163394;28;20029;-67
2021/04/18 05:24:10;;;;;;;9.40;5.35;;;7.00;99.90;;;;;;4149835;28;20515;-67
2021/04/18 05:26:10;;;;;;;14.63;6.10;;;7.10;99.90;;;;;;4158767;28;21238;-67
2021/04/18 05:28:11;;;;;;;11.93;6.00;;;7.10;99.90;;;;;;4158543;28;20052;-67
2021/04/18 05:30:12;;;;;;;9.48;5.30;;;7.10;99.90;;;;;;4160611;28;20036;-67
2021/04/18 05:32:13;;;;;;;9.00;5.45;;;7.20;99.90;;;;;;4158784;28;20033;-67
2021/04/18 05:34:14;;;;;;;9.80;5.05;;;7.20;99.90;;;;;;4159068;28;20141;-66
2021/04/18 05:36:14;;;;;;;11.65;5.68;;;7.30;99.90;;;;;;4158302;28;20034;-67
2021/04/18 05:38:15;;;;;;;14.10;6.38;;;7.30;99.90;;;;;;4154675;28;20029;-67
2021/04/18 05:40:16;;;;;;;11.63;5.75;;;7.30;99.90;;;;;;4158996;28;20049;-67
2021/04/18 05:42:16;;;;;;;12.13;6.65;;;7.30;99.90;;;;;;4159054;28;20030;-67
2021/04/18 05:44:17;;;;;;;12.32;6.55;;;7.30;99.90;;;;;;4158521;28;20036;-67
2021/04/18 05:46:17;;;;;;;17.45;7.35;;;7.30;99.90;;;;;;4157890;28;20045;-67
2021/04/18 05:48:18;;;;;;;13.30;7.03;;;7.30;99.90;;;;;;4184626;28;20040;-67
2021/04/18 05:50:19;;;;;;;15.77;6.97;;;7.30;99.90;;;;;;4159361;28;20490;-67
2021/04/18 05:52:20;;;;;;;13.13;6.82;;;7.30;99.90;;;;;;4158782;28;20098;-67
2021/04/18 05:54:21;;;;;;;15.93;7.15;;;7.30;99.90;;;;;;4160093;28;20033;-67
2021/04/18 05:56:21;;;;;;;14.43;6.93;;;7.30;99.90;;;;;;4158589;28;20057;-67
2021/04/18 05:58:22;;;;;;;15.85;7.22;;;7.30;99.90;;;;;;4157779;28;20105;-67
2021/04/18 06:00:23;;;;;;;13.35;6.55;;;7.30;99.90;;;;;;4188831;28;20029;-67
2021/04/18 06:02:23;;;;;;;16.58;7.50;;;7.30;99.90;;;;;;4158222;28;20030;-67
2021/04/18 06:04:24;;;;;;;15.20;7.82;;;7.40;99.90;;;;;;4159928;28;20124;-67
2021/04/18 06:06:27;;;;;;;13.77;7.03;;;7.40;99.90;;;;;;4158282;28;20108;-67
2021/04/18 06:08:28;;;;;;;19.83;7.93;;;7.40;99.90;;;;;;4157285;28;20040;-67
2021/04/18 06:10:29;;;;;;;14.80;6.60;;;7.40;99.90;;;;;;4158021;28;20424;-68
2021/04/18 06:12:29;;;;;;;14.55;7.22;;;7.40;99.90;;;;;;4156093;28;20079;-67
2021/04/18 06:14:30;;;;;;;11.73;6.40;;;7.50;99.90;;;;;;4170688;28;20037;-67
2021/04/18 06:16:30;;;;;;;11.32;5.88;;;7.50;99.90;;;;;;4153609;28;20482;-68
2021/04/18 06:18:31;;;;;;;13.35;7.07;;;7.50;99.90;;;;;;4154609;28;20049;-68
2021/04/18 06:20:32;;;;;;;11.38;6.00;;;7.50;99.90;;;;;;4152732;28;20084;-68
2021/04/18 06:22:33;;;;;;;10.43;5.90;;;7.60;99.90;;;;;;4156183;28;20184;-68
2021/04/18 06:24:34;;;;;;;12.23;6.57;;;7.70;99.90;;;;;;4155534;28;20038;-68
2021/04/18 06:26:34;;;;;;;12.95;6.15;;;7.70;99.90;;;;;;4153591;28;20289;-68
2021/04/18 06:28:35;;;;;;;10.65;5.60;;;7.70;99.90;;;;;;4156429;28;20033;-68
2021/04/18 06:30:36;;;;;;;12.18;6.07;;;7.80;99.90;;;;;;4154733;28;20305;-68
2021/04/18 06:32:36;;;;;;;17.33;7.05;;;7.80;99.90;;;;;;4155517;28;20274;-68
2021/04/18 06:34:37;;;;;;;12.82;6.88;;;7.90;99.90;;;;;;4156271;28;20053;-68
2021/04/18 06:36:38;;;;;;;13.38;6.95;;;7.90;99.90;;;;;;4154131;28;20037;-68
2021/04/18 06:38:38;;;;;;;15.50;7.38;;;8.00;99.90;;;;;;4151320;28;20096;-68
2021/04/18 06:40:40;;;;;;;13.00;7.22;;;8.00;99.90;;;;;;4154763;28;20448;-68
2021/04/18 06:42:42;;;;;;;16.67;7.90;;;8.00;99.90;;;;;;4155399;28;20053;-68
2021/04/18 06:44:44;;;;;;;20.20;8.32;;;8.10;99.90;;;;;;4151394;28;20038;-69
2021/04/18 06:46:47;;;;;;;13.40;7.72;;;8.10;99.90;;;;;;4150732;28;20431;-68
2021/04/18 06:48:49;;;;;;;13.90;7.40;;;8.10;99.90;;;;;;4153550;28;20037;-68
2021/04/18 06:50:49;;;;;;;18.43;8.43;;;8.10;99.90;;;;;;4153430;28;20041;-68
2021/04/18 06:52:50;;;;;;;15.75;7.25;;;8.20;99.90;;;;;;4155146;28;20101;-68
2021/04/18 06:54:51;;;;;;;11.60;6.55;;;8.20;99.90;;;;;;4153143;28;20149;-68
2021/04/18 06:56:51;;;;;;;23.42;8.68;;;8.20;99.90;;;;;;4154685;28;20042;-68
2021/04/18 06:58:57;;;;;;;13.80;7.68;;;8.30;99.90;;;;;;4154585;28;20062;-68
2021/04/18 07:00:57;;;;;;;14.55;7.30;;;8.30;99.90;;;;;;4153961;28;20038;-68
2021/04/18 07:03:13;;;;;;;14.73;7.63;;;8.30;99.90;;;;;;4155653;28;20087;-69
2021/04/18 07:05:15;;;;;;;16.95;8.65;;;8.30;99.90;;;;;;4178020;28;20033;-68
2021/04/18 07:07:30;;;;;;;15.00;7.93;;;8.40;99.90;;;;;;4155460;28;20029;-68
2021/04/18 07:09:43;;;;;;;15.57;7.35;;;8.40;99.90;;;;;;4156537;28;20037;-69
2021/04/18 07:12:02;;;;;;;14.85;7.80;;;8.40;99.90;;;;;;4157204;28;20038;-68
2021/04/18 07:14:27;;;;;;;15.65;7.47;;;8.50;99.90;;;;;;4166615;28;20103;-68
2021/04/18 07:16:32;;;;;;;15.57;7.97;;;8.50;99.90;;;;;;4199537;28;20107;-69
2021/04/18 07:18:37;;;;;;;16.58;8.38;;;8.50;99.90;;;;;;4188465;28;20435;-68
2021/04/18 07:21:07;;;;;;;14.98;8.07;;;8.60;99.90;;;;;;4155611;28;20042;-67
2021/04/18 07:23:29;;;;;;;13.95;8.27;;;8.60;99.90;;;;;;4152733;28;20040;-67
2021/04/18 07:25:30;;;;;;;16.55;7.95;;;8.60;99.90;;;;;;4178451;28;20116;-67
2021/04/18 07:27:46;;;;;;;12.80;7.32;;;8.70;99.90;;;;;;4153955;28;20508;-69
2021/04/18 07:29:58;;;;;;;15.18;7.45;;;8.70;99.90;;;;;;4158222;28;20041;-67
2021/04/18 07:32:00;;;;;;;21.15;8.30;;;8.70;99.90;;;;;;4157656;28;20029;-68
2021/04/18 07:34:03;;;;;;;15.27;8.23;;;8.80;99.90;;;;;;4156751;28;20036;-68
2021/04/18 07:36:18;;;;;;;15.00;8.73;;;8.80;99.90;;;;;;4157006;28;20065;-67
2021/04/18 07:38:24;;;;;;;15.57;7.97;;;8.90;99.90;;;;;;4156880;28;20034;-67
2021/04/18 07:40:31;;;;;;;14.82;7.30;;;8.90;99.90;;;;;;4169366;28;20034;-67
2021/04/18 07:42:50;;;;;;;12.23;6.95;;;9.00;99.90;;;;;;4181494;28;20028;-67
2021/04/18 07:44:55;;;;;;;12.98;7.32;;;9.10;99.90;;;;;;4155049;28;20034;-67
2021/04/18 07:46:56;;;;;;;20.42;7.95;;;9.20;99.90;;;;;;4153918;28;20042;-67
2021/04/18 07:48:57;;;;;;;16.98;7.75;;;9.20;99.90;;;;;;4154944;28;20021;-68
2021/04/18 07:50:58;;;;;;;14.85;7.57;;;9.30;99.90;;;;;;4155266;28;20087;-68
2021/04/18 07:52:59;;;;;;;13.75;8.00;;;9.40;99.90;;;;;;4154619;28;20448;-68
2021/04/18 07:55:00;;;;;;;15.00;7.72;;;9.40;99.90;;;;;;4154644;28;20048;-68
2021/04/18 07:57:01;;;;;;;11.35;7.20;;;9.50;99.90;;;;;;4154986;28;20050;-68
2021/04/18 07:59:02;;;;;;;14.63;7.35;;;9.60;99.90;;;;;;4155884;28;20049;-69
2021/04/18 08:01:03;;;;;;;12.57;6.82;;;9.70;99.90;;;;;;4157991;28;20049;-69
2021/04/18 08:03:04;;;;;;;15.32;7.22;;;9.70;99.90;;;;;;4159747;28;20045;-69
2021/04/18 08:05:08;;;;;;;14.00;7.80;;;9.90;99.90;;;;;;4157078;28;20054;-69
2021/04/18 08:07:09;;;;;;;13.00;7.35;;;9.90;99.90;;;;;;4158688;28;20370;-69
2021/04/18 08:09:20;;;;;;;19.20;7.18;;;10.00;99.90;;;;;;4157771;28;20041;-69
2021/04/18 08:11:23;;;;;;;15.68;7.25;;;10.10;99.90;;;;;;4179003;28;20033;-67
2021/04/18 08:13:25;;;;;;;;;;;10.10;99.90;;;;;;4158812;28;20124;-67
2021/04/18 08:15:26;;;;;;;12.32;7.10;;;10.20;99.90;;;;;;4156755;28;19917;-67
2021/04/18 08:17:26;;;;;;;14.15;7.20;;;10.20;99.90;;;;;;4158729;28;20083;-67
2021/04/18 08:19:27;;;;;;;16.38;8.13;;;10.30;99.90;;;;;;4156722;28;20628;-67
2021/04/18 08:21:36;;;;;;;19.33;8.38;;;10.50;99.90;;;;;;4158657;28;20099;-67
2021/04/18 08:23:40;;;;;;;12.98;7.10;;;10.50;99.90;;;;;;4157301;28;20029;-67
2021/04/18 08:26:04;;;;;;;15.15;7.20;;;10.60;99.90;;;;;;4158021;28;20057;-67
2021/04/18 08:28:12;;;;;;;12.50;7.40;;;10.70;99.90;;;;;;4156809;28;20026;-67
2021/04/18 08:30:13;;;;;;;13.07;7.32;;;10.80;99.90;;;;;;4156267;28;20040;-67
2021/04/18 08:32:14;;;;;;;14.75;7.40;;;10.90;99.90;;;;;;4184134;28;20024;-67
2021/04/18 08:34:24;;;;;;;12.30;7.18;;;11.00;99.90;;;;;;4155346;28;20060;-67
2021/04/18 08:36:30;;;;;;;9.85;6.10;;;11.10;99.90;;;;;;4158910;28;20084;-67
2021/04/18 08:38:30;;;;;;;11.63;6.55;;;11.20;99.90;;;;;;4158055;28;20022;-67
2021/04/18 08:40:31;;;;;;;11.43;6.70;;;11.20;99.90;;;;;;4157641;28;20482;-67
2021/04/18 08:42:32;;;;;;;10.07;6.18;;;11.30;99.90;;;;;;4183550;28;20036;-67
2021/04/18 08:44:36;;;;;;;12.15;6.63;;;11.30;99.90;;;;;;4157341;28;20100;-67
2021/04/18 08:46:38;;;;;;;10.02;6.32;;;11.30;99.90;;;;;;4156642;28;20022;-67
2021/04/18 08:48:39;;;;;;;9.55;6.47;;;11.40;99.90;;;;;;4157763;28;20033;-67
2021/04/18 08:50:55;;;;;;;15.98;7.70;;;11.40;99.90;;;;;;4158410;28;20547;-67
2021/04/18 08:53:02;;;;;;;15.13;7.82;;;11.40;99.90;;;;;;4181712;28;20029;-67
2021/04/18 08:55:11;;;;;;;12.82;7.15;;;11.40;99.90;;;;;;4157885;28;20035;-67
2021/04/18 08:57:21;;;;;;;14.48;7.45;;;11.40;99.90;;;;;;4157882;28;20044;-67
2021/04/18 08:59:22;;;;;;;13.60;8.30;;;11.40;99.90;;;;;;4157616;28;20045;-67
2021/04/18 09:01:23;;;;;;;15.05;8.15;;;11.30;99.90;;;;;;4158694;28;20127;-67
2021/04/18 09:03:23;;;;;;;12.77;8.00;;;11.30;99.90;;;;;;4184191;28;20119;-67
2021/04/18 09:05:25;;;;;;;16.25;7.63;;;11.30;99.90;;;;;;4155706;28;20049;-67
2021/04/18 09:07:31;;;;;;;14.77;7.80;;;11.20;99.90;;;;;;4158361;28;20597;-67
2021/04/18 09:09:31;;;;;;;14.95;8.27;;;11.20;99.90;;;;;;4179545;28;20635;-67
2021/04/18 09:11:39;;;;;;;15.40;7.85;;;11.20;99.90;;;;;;4159050;28;20026;-67
2021/04/18 09:13:58;;;;;;;19.15;8.30;;;11.20;99.90;;;;;;4157723;28;20116;-67
2021/04/18 09:15:58;;;;;;;15.73;7.32;;;11.30;99.90;;;;;;4158243;28;20042;-67
2021/04/18 09:17:59;;;;;;;16.30;8.27;;;11.30;99.90;;;;;;4161172;28;20092;-67
2021/04/18 09:20:05;;;;;;;18.85;7.95;;;11.30;99.90;;;;;;4158624;28;20116;-67
2021/04/18 09:22:33;;;;;;;17.52;7.95;;;11.30;99.90;;;;;;4154410;28;20430;-67
2021/04/18 09:24:39;;;;;;;13.48;7.43;;;11.30;99.90;;;;;;4153676;28;20030;-67
2021/04/18 09:26:55;;;;;;;13.18;7.45;;;11.30;99.90;;;;;;4156463;28;20524;-67
2021/04/18 09:29:05;;;;;;;14.18;7.45;;;11.40;99.90;;;;;;4141007;28;20080;-67
2021/04/18 09:31:07;;;;;;;15.27;7.97;;;11.40;99.90;;;;;;4158843;28;20513;-67
2021/04/18 09:33:09;;;;;;;17.00;8.18;;;11.40;99.90;;;;;;4156181;28;20061;-67
2021/04/18 09:35:11;;;;;;;18.92;8.02;;;11.30;99.90;;;;;;4185527;28;20043;-66
2021/04/18 09:37:16;;;;;;;16.33;7.80;;;11.30;99.90;;;;;;4158078;28;21047;-66
2021/04/18 09:39:18;;;;;;;14.65;7.93;;;11.30;99.90;;;;;;4157953;28;20460;-67
2021/04/18 09:41:18;;;;;;;12.63;7.25;;;11.40;99.90;;;;;;4156830;28;20056;-67
2021/04/18 09:43:23;;;;;;;15.43;8.23;;;11.40;99.90;;;;;;4156190;28;20049;-67
2021/04/18 09:45:27;;;;;;;15.00;7.85;;;11.40;99.90;;;;;;4157324;28;20120;-67
2021/04/18 09:47:28;;;;;;;12.13;7.45;;;11.40;99.90;;;;;;4157371;28;20060;-67
2021/04/18 09:49:44;;;;;;;11.60;6.88;;;11.50;99.90;;;;;;4157450;28;20072;-67
2021/04/18 09:51:53;;;;;;;12.40;7.00;;;11.50;99.90;;;;;;4157838;28;20129;-68
2021/04/18 09:54:01;;;;;;;15.25;7.93;;;11.60;99.90;;;;;;4187461;28;20732;-67
2021/04/18 09:56:05;;;;;;;17.48;8.30;;;11.70;99.90;;;;;;4160488;28;20040;-67
2021/04/18 09:58:05;;;;;;;16.50;7.65;;;11.80;99.90;;;;;;4158778;28;20155;-67
2021/04/18 10:00:08;;;;;;;17.67;8.40;;;11.90;99.90;;;;;;4159058;28;20069;-67
2021/04/18 10:02:13;;;;;;;14.65;8.45;;;11.90;99.90;;;;;;4157305;28;20044;-66
2021/04/18 10:04:24;;;;;;;19.55;8.02;;;12.00;99.90;;;;;;4159265;28;20604;-67
2021/04/18 10:06:25;;;;;;;14.85;7.57;;;12.10;99.90;;;;;;4158527;28;20033;-67
2021/04/18 10:08:35;;;;;;;13.52;7.25;;;12.10;99.90;;;;;;4157302;28;20029;-67
2021/04/18 10:10:36;;;;;;;13.82;7.75;;;12.20;99.90;;;;;;4163005;28;20140;-66
2021/04/18 10:12:47;;;;;;;11.65;7.13;;;12.20;99.90;;;;;;4158021;28;20080;-67
2021/04/18 10:15:05;;;;;;;14.32;7.05;;;12.30;99.90;;;;;;4156266;28;20128;-67
2021/04/18 10:17:05;;;;;;;10.40;6.50;;;12.40;99.90;;;;;;4152706;28;20581;-67
2021/04/18 10:19:10;;;;;;;16.40;7.78;;;12.50;99.90;;;;;;4158292;28;20091;-67
2021/04/18 10:21:21;;;;;;;11.32;6.88;;;12.60;99.90;;;;;;4156182;28;20037;-67
2021/04/18 10:23:32;;;;;;;16.95;7.28;;;12.60;99.90;;;;;;4154767;28;20041;-67
2021/04/18 10:25:32;;;;;;;11.55;6.53;;;12.70;99.90;;;;;;4155551;28;20049;-66
2021/04/18 10:27:34;;;;;;;14.25;7.55;;;12.70;99.90;;;;;;4157866;28;20037;-66
2021/04/18 10:29:36;;;;;;;10.93;7.10;;;12.80;99.90;;;;;;4156998;28;20093;-67
2021/04/18 10:31:37;;;;;;;12.95;7.28;;;12.90;99.90;;;;;;4156927;28;20107;-67
2021/04/18 10:33:37;;;;;;;12.15;7.57;;;12.90;99.90;;;;;;4157685;28;20029;-67
2021/04/18 10:35:38;;;;;;;16.60;7.75;;;13.00;99.90;;;;;;4157882;28;20033;-67
2021/04/18 10:37:38;;;;;;;10.00;6.35;;;13.00;99.90;;;;;;4155982;28;20124;-67
2021/04/18 10:39:39;;;;;;;14.73;6.80;;;13.10;99.90;;;;;;4157243;28;20034;-66
2021/04/18 10:41:40;;;;;;;14.65;6.97;;;13.10;99.90;;;;;;4153436;28;20057;-67